Time;durP1;ratioP1;P1;durP2;ratioP2;P2;SDS_P1;SDS_P2;PMS_P1;PMS_P2;Temp;Humidity;BMP_temperature;BMP_pressure;BME280_temperature;BME280_humidity;BME280_pressure;Samples;Min_cycle;Max_cycle;Signal;HPM_P1;HPM_P2
2021/12/18 06:00:18;;;;;;;19.40;17.30;;;6.90;97.20;;;;;;1715357;28;20273;-77
2021/12/18 06:01:09;;;;;;;21.05;18.75;;;6.80;97.20;;;;;;1715563;28;20238;-77
2021/12/18 06:02:01;;;;;;;19.27;17.30;;;6.80;97.20;;;;;;1715168;28;20205;-77
2021/12/18 06:02:52;;;;;;;20.45;18.35;;;6.80;97.20;;;;;;1712245;28;20446;-77
2021/12/18 06:03:44;;;;;;;20.20;18.10;;;6.80;97.20;;;;;;1708667;28;20744;-77
2021/12/18 06:04:34;;;;;;;21.20;18.65;;;6.90;97.20;;;;;;1708756;28;20237;-77
2021/12/18 06:05:26;;;;;;;20.30;18.07;;;6.90;97.20;;;;;;1708228;28;20198;-77
2021/12/18 06:06:17;;;;;;;18.98;17.08;;;6.90;97.20;;;;;;1714699;28;20252;-78
2021/12/18 06:07:16;;;;;;;19.53;17.33;;;6.90;97.20;;;;;;1715669;28;20202;-77
2021/12/18 06:08:12;;;;;;;18.80;16.38;;;6.80;97.20;;;;;;1715610;28;20290;-77
2021/12/18 06:09:03;;;;;;;19.27;17.17;;;6.80;97.20;;;;;;1715805;28;20570;-78
2021/12/18 06:09:54;;;;;;;19.17;17.10;;;6.80;97.20;;;;;;1714904;28;20653;-77
2021/12/18 06:10:46;;;;;;;19.73;17.63;;;6.80;97.20;;;;;;1714218;28;20586;-77
2021/12/18 06:11:39;;;;;;;21.10;17.38;;;6.90;97.20;;;;;;1715160;28;20484;-77
2021/12/18 06:12:31;;;;;;;17.98;16.08;;;6.80;97.20;;;;;;1715442;28;20653;-78
2021/12/18 06:13:22;;;;;;;19.55;16.95;;;6.80;97.20;;;;;;1715561;28;20201;-77
2021/12/18 06:14:14;;;;;;;18.77;16.77;;;6.80;97.20;;;;;;1715430;28;20270;-78
2021/12/18 06:15:05;;;;;;;18.33;16.33;;;6.80;97.20;;;;;;1713873;28;20669;-77
2021/12/18 06:15:58;;;;;;;19.27;17.15;;;6.80;97.20;;;;;;1708542;29;20202;-77
2021/12/18 06:16:49;;;;;;;18.70;16.70;;;6.80;97.20;;;;;;1711197;28;20217;-77
2021/12/18 06:17:41;;;;;;;19.20;16.90;;;6.80;97.20;;;;;;1715374;28;20298;-77
2021/12/18 06:18:32;;;;;;;18.27;16.23;;;6.90;97.20;;;;;;1714759;28;20488;-77
2021/12/18 06:19:24;;;;;;;18.73;16.83;;;6.90;97.20;;;;;;1714531;28;20198;-77
2021/12/18 06:20:15;;;;;;;19.30;17.20;;;6.90;97.20;;;;;;1715009;28;20202;-77
2021/12/18 06:21:09;;;;;;;18.97;16.97;;;6.90;97.20;;;;;;1709843;28;20195;-77
2021/12/18 06:21:59;;;;;;;19.88;17.77;;;6.90;97.20;;;;;;1708399;28;20229;-77
2021/12/18 06:22:51;;;;;;;18.63;16.43;;;6.90;97.20;;;;;;1709290;29;20293;-77
2021/12/18 06:23:43;;;;;;;18.98;17.00;;;6.90;97.20;;;;;;1709302;28;20678;-77
2021/12/18 06:24:35;;;;;;;18.23;16.30;;;6.90;97.20;;;;;;1708654;28;20257;-77
2021/12/18 06:25:25;;;;;;;19.52;17.40;;;6.90;97.20;;;;;;1708377;28;20701;-77
2021/12/18 06:26:18;;;;;;;17.43;15.60;;;6.90;97.20;;;;;;1708904;29;20571;-77
2021/12/18 06:27:09;;;;;;;19.30;16.98;;;6.90;97.20;;;;;;1708562;29;20964;-77
2021/12/18 06:28:01;;;;;;;18.90;16.90;;;6.90;97.20;;;;;;1708088;29;20757;-77
2021/12/18 06:28:51;;;;;;;18.88;16.88;;;6.80;97.20;;;;;;1711859;28;20296;-77
2021/12/18 06:29:43;;;;;;;17.77;15.87;;;6.80;97.20;;;;;;1714857;28;20194;-77
2021/12/18 06:30:34;;;;;;;18.83;16.80;;;6.80;97.20;;;;;;1712767;28;20598;-77
2021/12/18 06:31:27;;;;;;;17.50;15.60;;;6.80;97.20;;;;;;1713195;28;20552;-77
2021/12/18 06:32:18;;;;;;;17.13;15.40;;;6.80;97.20;;;;;;1714590;28;20445;-77
2021/12/18 06:33:10;;;;;;;17.37;15.57;;;6.80;97.20;;;;;;1714621;28;20200;-77
2021/12/18 06:34:01;;;;;;;17.92;15.77;;;6.80;97.20;;;;;;1714421;28;20595;-77
2021/12/18 06:34:52;;;;;;;19.00;17.00;;;6.80;97.20;;;;;;1714418;28;20248;-77
2021/12/18 06:35:43;;;;;;;18.52;16.63;;;6.90;97.20;;;;;;1714251;28;20248;-77
2021/12/18 06:36:35;;;;;;;17.07;15.23;;;6.90;97.20;;;;;;1715507;28;20198;-77
2021/12/18 06:37:26;;;;;;;19.05;16.95;;;6.90;97.20;;;;;;1717544;28;20440;-77
2021/12/18 06:38:17;;;;;;;18.83;16.77;;;6.90;97.20;;;;;;1722481;28;20201;-77
2021/12/18 06:39:09;;;;;;;17.92;15.93;;;6.90;97.20;;;;;;1720694;28;20205;-76
2021/12/18 06:40:00;;;;;;;19.13;17.13;;;6.90;97.20;;;;;;1713207;28;20252;-77
2021/12/18 06:40:52;;;;;;;19.95;16.33;;;6.90;97.20;;;;;;1714139;28;20272;-77
2021/12/18 06:41:43;;;;;;;18.80;16.92;;;6.90;97.20;;;;;;1714105;28;20198;-77
2021/12/18 06:42:35;;;;;;;18.20;16.17;;;6.90;97.20;;;;;;1714283;28;20209;-77
2021/12/18 06:43:26;;;;;;;19.88;17.02;;;6.90;97.20;;;;;;1709968;28;20199;-77
2021/12/18 06:44:17;;;;;;;18.10;16.20;;;6.90;97.20;;;;;;1707803;28;20675;-77
2021/12/18 06:45:10;;;;;;;23.60;18.13;;;6.90;97.20;;;;;;1708151;29;20654;-76
2021/12/18 06:46:01;;;;;;;19.05;17.05;;;6.90;97.20;;;;;;1711484;28;20198;-77
2021/12/18 06:46:56;;;;;;;18.30;16.40;;;6.90;97.20;;;;;;1711525;28;20206;-77
2021/12/18 06:47:46;;;;;;;19.50;17.15;;;6.90;97.20;;;;;;1714586;28;20198;-77
2021/12/18 06:48:38;;;;;;;18.87;16.77;;;6.90;97.20;;;;;;1712081;28;20197;-76
2021/12/18 06:49:29;;;;;;;20.92;18.65;;;6.90;97.20;;;;;;1708708;29;20207;-77
2021/12/18 06:50:21;;;;;;;21.33;17.70;;;6.90;97.20;;;;;;1708349;29;20194;-77
2021/12/18 06:51:12;;;;;;;20.65;18.45;;;6.90;97.20;;;;;;1708201;29;20253;-77
2021/12/18 06:52:05;;;;;;;20.37;17.23;;;6.90;97.20;;;;;;1707969;29;20206;-77
2021/12/18 06:52:55;;;;;;;20.02;16.98;;;6.90;97.20;;;;;;1712587;28;20448;-77
2021/12/18 06:53:48;;;;;;;21.03;17.80;;;6.90;97.20;;;;;;1714245;28;20201;-77
2021/12/18 06:54:39;;;;;;;40.30;36.00;;;6.90;97.20;;;;;;1715365;28;20197;-77
2021/12/18 06:55:31;;;;;;;28.10;24.83;;;6.90;97.20;;;;;;1716430;28;20209;-77
2021/12/18 06:56:22;;;;;;;20.85;18.10;;;6.90;97.20;;;;;;1715961;28;20202;-77
2021/12/18 06:57:13;;;;;;;20.53;17.70;;;6.90;97.20;;;;;;1715825;28;20218;-77
2021/12/18 06:58:04;;;;;;;20.58;18.27;;;6.90;97.20;;;;;;1715084;28;20198;-77
2021/12/18 06:58:56;;;;;;;18.93;16.93;;;6.90;97.20;;;;;;1714881;28;20201;-77
2021/12/18 06:59:47;;;;;;;21.52;19.15;;;6.90;97.20;;;;;;1714027;28;20259;-77
2021/12/18 07:00:39;;;;;;;20.83;18.63;;;6.90;97.20;;;;;;1713805;28;20281;-77
2021/12/18 07:01:30;;;;;;;20.15;17.45;;;6.90;97.20;;;;;;1713922;28;20449;-77
2021/12/18 07:02:23;;;;;;;19.63;17.55;;;6.90;97.20;;;;;;1714040;28;20208;-76
2021/12/18 07:03:14;;;;;;;19.70;17.58;;;6.90;97.20;;;;;;1713655;28;20709;-76
2021/12/18 07:04:06;;;;;;;22.83;20.43;;;6.90;97.20;;;;;;1713728;28;20602;-77
2021/12/18 07:04:57;;;;;;;22.33;18.23;;;6.90;97.20;;;;;;1713842;28;20684;-76
2021/12/18 07:05:49;;;;;;;20.43;17.23;;;6.90;97.20;;;;;;1714732;28;20683;-77
2021/12/18 07:06:39;;;;;;;21.92;19.58;;;6.90;97.20;;;;;;1713192;28;20213;-77
2021/12/18 07:07:31;;;;;;;29.50;26.50;;;6.90;97.20;;;;;;1714438;28;20200;-79
2021/12/18 07:08:22;;;;;;;28.98;25.88;;;6.90;97.20;;;;;;1714282;28;20205;-76
2021/12/18 07:09:14;;;;;;;24.37;21.77;;;6.90;97.20;;;;;;1713387;28;20193;-75
2021/12/18 07:10:07;;;;;;;23.77;19.83;;;6.90;97.20;;;;;;1713517;28;20442;-75
2021/12/18 07:10:59;;;;;;;21.73;18.42;;;6.90;97.20;;;;;;1713734;28;20633;-75
2021/12/18 07:11:49;;;;;;;19.40;17.30;;;6.90;97.20;;;;;;1713873;28;20692;-76
2021/12/18 07:12:41;;;;;;;19.53;17.43;;;6.90;97.20;;;;;;1713716;28;20669;-76
2021/12/18 07:13:32;;;;;;;19.10;15.95;;;6.90;97.20;;;;;;1713830;28;20220;-76
2021/12/18 07:14:24;;;;;;;19.00;17.00;;;6.90;97.20;;;;;;1713688;28;20304;-76
2021/12/18 07:15:15;;;;;;;18.50;16.45;;;6.90;97.20;;;;;;1713658;28;20230;-74
2021/12/18 07:16:06;;;;;;;20.37;18.27;;;6.90;97.20;;;;;;1713571;28;20672;-76
2021/12/18 07:16:57;;;;;;;20.13;17.63;;;6.90;97.20;;;;;;1713069;28;20956;-75
2021/12/18 07:17:50;;;;;;;17.97;16.07;;;6.90;97.20;;;;;;1710690;28;20578;-76
2021/12/18 07:18:42;;;;;;;20.23;17.95;;;6.90;97.20;;;;;;1706883;28;20597;-77
2021/12/18 07:19:34;;;;;;;19.02;17.00;;;6.90;97.20;;;;;;1707121;29;20202;-75
2021/12/18 07:20:27;;;;;;;19.15;16.67;;;7.00;97.20;;;;;;1707125;28;20202;-76
2021/12/18 07:21:19;;;;;;;21.02;17.88;;;7.00;97.20;;;;;;1707173;28;20648;-75
2021/12/18 07:22:10;;;;;;;20.60;17.27;;;7.00;97.20;;;;;;1707333;29;20211;-77
2021/12/18 07:23:02;;;;;;;19.63;17.53;;;7.00;97.20;;;;;;1707602;29;20226;-76
2021/12/18 07:23:52;;;;;;;20.15;16.77;;;6.90;97.20;;;;;;1708169;28;20728;-77
2021/12/18 07:24:44;;;;;;;19.00;16.30;;;6.90;97.20;;;;;;1707915;29;20206;-76
2021/12/18 07:25:35;;;;;;;22.38;16.52;;;6.90;97.20;;;;;;1707863;29;21181;-77
2021/12/18 07:26:28;;;;;;;19.27;17.17;;;6.90;97.20;;;;;;1708106;28;20582;-76
2021/12/18 07:27:18;;;;;;;26.60;23.95;;;6.90;97.20;;;;;;1713690;28;20450;-77
2021/12/18 07:28:10;;;;;;;27.20;24.20;;;6.90;97.20;;;;;;1715668;28;20201;-77
2021/12/18 07:29:01;;;;;;;21.75;19.45;;;6.90;97.20;;;;;;1714554;28;20498;-76
2021/12/18 07:29:53;;;;;;;20.10;17.73;;;6.90;97.20;;;;;;1714098;28;20210;-76
2021/12/18 07:30:45;;;;;;;23.15;20.73;;;6.90;97.20;;;;;;1714537;28;20465;-77
2021/12/18 07:31:36;;;;;;;24.03;21.53;;;6.90;97.20;;;;;;1713636;28;20696;-76
2021/12/18 07:32:28;;;;;;;20.73;18.50;;;6.90;97.20;;;;;;1713732;28;20217;-77
2021/12/18 07:33:21;;;;;;;19.05;17.05;;;6.90;97.20;;;;;;1713421;28;20240;-77
2021/12/18 07:34:12;;;;;;;19.23;17.17;;;6.90;97.20;;;;;;1714653;28;20209;-77
2021/12/18 07:35:05;;;;;;;18.97;16.50;;;6.90;97.20;;;;;;1713774;28;20226;-77
2021/12/18 07:35:56;;;;;;;18.15;16.25;;;6.90;97.20;;;;;;1714060;28;20705;-77
2021/12/18 07:36:48;;;;;;;18.60;16.10;;;6.90;97.20;;;;;;1713085;28;20627;-76
2021/12/18 07:37:39;;;;;;;17.55;15.00;;;6.90;97.20;;;;;;1713508;28;20253;-77
2021/12/18 07:38:30;;;;;;;16.67;14.87;;;6.90;97.20;;;;;;1713639;28;20193;-77
2021/12/18 07:39:21;;;;;;;16.52;14.77;;;6.90;97.20;;;;;;1713247;28;20229;-77
2021/12/18 07:40:14;;;;;;;18.50;16.17;;;6.90;97.20;;;;;;1713458;28;20201;-76
2021/12/18 07:41:04;;;;;;;16.83;15.02;;;6.90;97.20;;;;;;1713605;28;20209;-77
2021/12/18 07:41:56;;;;;;;17.63;15.17;;;6.90;97.20;;;;;;1713782;28;20205;-77
2021/12/18 07:42:47;;;;;;;17.17;14.55;;;6.90;97.20;;;;;;1713613;28;20217;-77
2021/12/18 07:43:39;;;;;;;15.67;14.03;;;6.90;97.20;;;;;;1713797;28;20653;-76
2021/12/18 07:44:29;;;;;;;16.98;14.45;;;6.90;97.20;;;;;;1713560;28;20661;-76
2021/12/18 07:45:22;;;;;;;16.40;14.63;;;6.90;97.20;;;;;;1713233;28;20812;-77
2021/12/18 07:46:12;;;;;;;15.63;13.93;;;6.90;97.20;;;;;;1713631;28;20206;-77
2021/12/18 07:47:04;;;;;;;17.00;15.17;;;7.00;97.20;;;;;;1708876;28;20222;-77
2021/12/18 07:47:55;;;;;;;14.68;13.18;;;7.00;97.20;;;;;;1707056;28;20214;-76
2021/12/18 07:48:48;;;;;;;16.70;15.00;;;7.00;97.20;;;;;;1706799;29;20205;-76
2021/12/18 07:49:39;;;;;;;16.60;14.80;;;7.00;97.20;;;;;;1706984;29;20209;-77
2021/12/18 07:50:31;;;;;;;16.63;14.83;;;6.90;97.20;;;;;;1706956;29;20198;-76
2021/12/18 07:51:22;;;;;;;17.23;15.38;;;7.00;97.20;;;;;;1706748;29;20206;-76
2021/12/18 07:52:14;;;;;;;14.93;13.37;;;7.00;97.20;;;;;;1707902;29;20202;-78
2021/12/18 07:53:04;;;;;;;17.05;14.88;;;6.90;97.20;;;;;;1709156;29;20260;-78
2021/12/18 07:53:56;;;;;;;17.40;15.60;;;6.90;97.20;;;;;;1708973;29;20202;-78
2021/12/18 07:54:49;;;;;;;17.08;15.20;;;6.90;97.20;;;;;;1707450;29;20234;-76
2021/12/18 07:55:40;;;;;;;18.17;16.25;;;6.90;97.20;;;;;;1706885;29;20584;-76
2021/12/18 07:56:32;;;;;;;18.60;16.73;;;7.00;97.20;;;;;;1708354;28;20237;-76
2021/12/18 07:57:24;;;;;;;18.20;16.30;;;6.90;97.20;;;;;;1713257;28;20616;-76
2021/12/18 07:58:14;;;;;;;18.77;16.83;;;6.90;97.20;;;;;;1713657;28;20208;-76
2021/12/18 07:59:06;;;;;;;16.10;14.40;;;7.00;97.20;;;;;;1713215;28;20677;-76
2021/12/18 07:59:57;;;;;;;15.13;13.52;;;6.90;97.20;;;;;;1713534;28;20209;-76
2021/12/18 08:00:48;;;;;;;14.93;13.23;;;7.00;97.20;;;;;;1713700;28;20233;-79
2021/12/18 08:01:39;;;;;;;15.77;13.65;;;7.00;97.20;;;;;;1715190;28;20814;-76
2021/12/18 08:02:31;;;;;;;18.80;16.77;;;7.00;97.20;;;;;;1713551;28;20733;-77
2021/12/18 08:03:22;;;;;;;16.42;14.70;;;7.00;97.20;;;;;;1713483;28;20202;-76
2021/12/18 08:04:15;;;;;;;18.93;13.23;;;7.00;97.20;;;;;;1714135;28;20198;-77
2021/12/18 08:05:06;;;;;;;14.82;12.80;;;7.00;97.20;;;;;;1713842;28;21039;-77
2021/12/18 08:05:58;;;;;;;15.70;13.95;;;7.00;97.20;;;;;;1713887;28;20669;-77
2021/12/18 08:06:49;;;;;;;15.85;14.20;;;7.00;97.20;;;;;;1712086;28;20222;-76
2021/12/18 08:07:41;;;;;;;16.25;14.55;;;7.00;97.20;;;;;;1713635;28;20204;-77
2021/12/18 08:08:32;;;;;;;21.95;19.15;;;7.00;97.20;;;;;;1713680;28;20606;-77
2021/12/18 08:09:24;;;;;;;26.57;23.70;;;7.00;97.20;;;;;;1713256;28;20707;-77
2021/12/18 08:10:15;;;;;;;24.73;22.23;;;7.00;97.20;;;;;;1713890;28;20209;-77
2021/12/18 08:11:06;;;;;;;18.63;16.67;;;7.00;97.20;;;;;;1713768;28;20202;-76
2021/12/18 08:11:57;;;;;;;16.38;14.57;;;7.00;97.20;;;;;;1713749;28;20445;-77
2021/12/18 08:12:49;;;;;;;16.92;15.23;;;7.00;97.20;;;;;;1713807;28;20280;-77
2021/12/18 08:13:40;;;;;;;16.95;15.25;;;7.00;97.20;;;;;;1713676;28;20218;-77
2021/12/18 08:14:32;;;;;;;15.90;14.20;;;7.00;97.20;;;;;;1713373;28;20209;-77
2021/12/18 08:15:22;;;;;;;16.77;14.23;;;7.00;97.20;;;;;;1713499;28;20673;-77
2021/12/18 08:16:14;;;;;;;17.03;15.33;;;7.00;97.20;;;;;;1713768;28;20814;-77
2021/12/18 08:17:05;;;;;;;20.98;15.13;;;7.00;97.20;;;;;;1713115;28;20270;-77
2021/12/18 08:17:58;;;;;;;16.73;14.43;;;7.00;97.20;;;;;;1716320;28;20229;-77
2021/12/18 08:18:49;;;;;;;16.45;13.48;;;7.00;97.20;;;;;;1714393;28;20205;-77
2021/12/18 08:19:42;;;;;;;16.57;14.87;;;7.00;97.20;;;;;;1707155;28;20202;-77
2021/12/18 08:20:33;;;;;;;16.80;14.57;;;7.00;97.20;;;;;;1706678;29;20230;-77
2021/12/18 08:21:25;;;;;;;15.98;14.27;;;7.00;97.20;;;;;;1706892;29;20254;-77
2021/12/18 08:22:16;;;;;;;14.32;12.82;;;7.00;97.20;;;;;;1707185;29;20647;-77
2021/12/18 08:23:08;;;;;;;14.77;13.20;;;7.00;97.20;;;;;;1707293;28;20238;-78
2021/12/18 08:23:58;;;;;;;16.08;14.10;;;7.00;97.20;;;;;;1708483;29;20445;-78
2021/12/18 08:24:50;;;;;;;12.90;11.53;;;7.00;97.20;;;;;;1708385;28;20202;-78
2021/12/18 08:25:41;;;;;;;13.90;12.35;;;7.00;97.20;;;;;;1708701;29;20214;-79
2021/12/18 08:26:33;;;;;;;14.87;13.37;;;7.00;97.20;;;;;;1708201;28;20209;-79
2021/12/18 08:27:24;;;;;;;15.25;13.65;;;7.00;97.20;;;;;;1711974;28;20564;-79
2021/12/18 08:28:16;;;;;;;15.80;13.60;;;7.00;97.20;;;;;;1715528;28;20198;-78
2021/12/18 08:29:07;;;;;;;13.80;12.38;;;7.00;97.20;;;;;;1714256;28;20206;-78
2021/12/18 08:29:58;;;;;;;15.03;13.43;;;7.10;97.20;;;;;;1715452;28;20198;-79
2021/12/18 08:30:49;;;;;;;16.33;14.73;;;7.00;97.20;;;;;;1716492;28;20473;-79
2021/12/18 08:31:41;;;;;;;15.60;14.00;;;7.10;97.20;;;;;;1716737;28;20241;-78
2021/12/18 08:32:32;;;;;;;14.48;12.50;;;7.10;97.20;;;;;;1716161;28;20206;-78
2021/12/18 08:33:23;;;;;;;15.03;13.43;;;7.10;97.20;;;;;;1716120;28;20202;-79
2021/12/18 08:34:14;;;;;;;15.63;14.02;;;7.10;97.20;;;;;;1717663;28;20213;-79
2021/12/18 08:35:09;;;;;;;16.43;13.87;;;7.00;97.20;;;;;;1717628;28;20265;-79
2021/12/18 08:35:59;;;;;;;14.55;13.05;;;7.10;97.20;;;;;;1716586;28;20248;-78
2021/12/18 08:36:51;;;;;;;14.40;13.00;;;7.10;97.20;;;;;;1715964;28;20202;-78
2021/12/18 08:37:42;;;;;;;16.05;14.35;;;7.00;97.20;;;;;;1710483;28;20213;-79
2021/12/18 08:38:34;;;;;;;14.80;13.30;;;7.00;97.20;;;;;;1709292;29;20269;-78
2021/12/18 08:39:25;;;;;;;13.52;12.15;;;7.00;97.20;;;;;;1709762;28;20552;-78
2021/12/18 08:40:16;;;;;;;15.43;13.70;;;7.10;97.20;;;;;;1709776;29;20294;-79
2021/12/18 08:41:08;;;;;;;15.00;13.40;;;7.00;97.20;;;;;;1709996;28;20561;-78
2021/12/18 08:42:04;;;;;;;14.93;13.32;;;7.10;97.20;;;;;;1709734;28;20206;-78
2021/12/18 08:42:54;;;;;;;16.00;13.98;;;7.10;97.20;;;;;;1709481;28;20198;-79
2021/12/18 08:43:46;;;;;;;15.37;13.47;;;7.10;97.20;;;;;;1709274;28;20198;-78
2021/12/18 08:44:37;;;;;;;16.00;14.38;;;7.10;97.20;;;;;;1709406;29;20214;-78
2021/12/18 08:45:30;;;;;;;15.50;13.90;;;7.10;97.20;;;;;;1709329;29;20285;-79
2021/12/18 08:46:20;;;;;;;16.27;14.35;;;7.10;97.20;;;;;;1709347;29;20206;-79
2021/12/18 08:47:14;;;;;;;17.70;15.17;;;7.10;97.20;;;;;;1710817;28;20195;-79
2021/12/18 08:48:05;;;;;;;15.52;13.93;;;7.10;97.20;;;;;;1716807;28;20449;-78
2021/12/18 08:48:57;;;;;;;18.17;14.30;;;7.10;97.20;;;;;;1716517;28;20314;-78
2021/12/18 08:49:48;;;;;;;15.85;14.15;;;7.10;97.20;;;;;;1715419;28;21043;-78
2021/12/18 08:50:41;;;;;;;16.47;14.67;;;7.20;97.20;;;;;;1715477;28;20236;-79
2021/12/18 08:51:32;;;;;;;16.65;14.63;;;7.20;97.20;;;;;;1716325;28;20202;-79
2021/12/18 08:52:24;;;;;;;17.35;14.52;;;7.10;97.20;;;;;;1716185;28;20198;-78
2021/12/18 08:53:15;;;;;;;14.82;13.23;;;7.10;97.20;;;;;;1716577;28;20213;-78
2021/12/18 08:54:07;;;;;;;15.30;13.70;;;7.10;97.20;;;;;;1716636;28;20210;-78
2021/12/18 08:54:58;;;;;;;16.85;15.05;;;7.20;97.20;;;;;;1716925;28;20260;-78
2021/12/18 08:55:50;;;;;;;15.00;13.48;;;7.20;97.20;;;;;;1715338;28;20672;-78
2021/12/18 08:56:41;;;;;;;15.63;14.02;;;7.20;97.20;;;;;;1715399;28;20206;-78
2021/12/18 08:57:33;;;;;;;14.43;12.93;;;7.20;97.20;;;;;;1712192;28;20195;-78
2021/12/18 08:58:24;;;;;;;15.73;14.00;;;7.20;97.20;;;;;;1711419;28;20231;-79
2021/12/18 08:59:16;;;;;;;16.48;14.77;;;7.20;97.20;;;;;;1712302;28;20205;-79
2021/12/18 09:00:09;;;;;;;15.45;13.85;;;7.20;97.20;;;;;;1711093;28;20210;-79
2021/12/18 09:01:02;;;;;;;15.07;13.40;;;7.20;97.20;;;;;;1716354;28;20252;-77
2021/12/18 09:01:52;;;;;;;17.05;15.32;;;7.20;97.20;;;;;;1715283;28;20202;-77
2021/12/18 09:02:47;;;;;;;15.97;14.37;;;7.20;97.20;;;;;;1715449;28;20194;-78
2021/12/18 09:03:37;;;;;;;16.25;13.68;;;7.10;97.20;;;;;;1716114;28;20209;-78
2021/12/18 09:04:29;;;;;;;17.37;14.17;;;7.20;97.20;;;;;;1713108;28;20206;-78
2021/12/18 09:05:21;;;;;;;19.23;16.42;;;7.20;97.20;;;;;;1708831;28;20249;-78
2021/12/18 09:06:14;;;;;;;15.77;14.07;;;7.20;97.20;;;;;;1709071;29;20293;-78
2021/12/18 09:07:05;;;;;;;16.58;14.40;;;7.20;97.20;;;;;;1708816;29;20230;-78
2021/12/18 09:07:57;;;;;;;16.38;14.70;;;7.20;97.20;;;;;;1708809;28;20567;-78
2021/12/18 09:08:48;;;;;;;16.75;15.05;;;7.20;97.20;;;;;;1708498;29;20237;-77
2021/12/18 09:09:40;;;;;;;15.50;13.90;;;7.20;97.20;;;;;;1708805;29;20208;-78
2021/12/18 09:10:31;;;;;;;15.07;13.48;;;7.20;97.20;;;;;;1709109;28;20598;-78
2021/12/18 09:11:24;;;;;;;16.55;14.82;;;7.20;97.20;;;;;;1708986;29;20210;-78
2021/12/18 09:12:14;;;;;;;15.07;13.48;;;7.20;97.20;;;;;;1708697;29;20310;-78
2021/12/18 09:13:06;;;;;;;16.50;14.70;;;7.20;97.20;;;;;;1708936;29;20226;-78
2021/12/18 09:13:57;;;;;;;15.10;13.60;;;7.20;97.20;;;;;;1708736;29;20234;-78
2021/12/18 09:14:49;;;;;;;18.30;15.87;;;7.20;97.20;;;;;;1709123;28;20288;-78
2021/12/18 09:15:40;;;;;;;16.98;15.18;;;7.20;97.20;;;;;;1708743;29;20454;-77
2021/12/18 09:16:32;;;;;;;15.80;14.20;;;7.20;97.20;;;;;;1709405;28;20632;-78
2021/12/18 09:17:23;;;;;;;15.85;14.07;;;7.20;97.20;;;;;;1713022;28;20280;-78
2021/12/18 09:18:14;;;;;;;16.30;14.60;;;7.20;97.20;;;;;;1708740;28;20231;-78
2021/12/18 09:19:06;;;;;;;14.83;12.70;;;7.20;97.20;;;;;;1713481;28;20204;-78
2021/12/18 09:19:57;;;;;;;15.45;13.85;;;7.20;97.20;;;;;;1715322;28;20248;-77
2021/12/18 09:20:48;;;;;;;16.63;14.17;;;7.20;97.20;;;;;;1715340;28;20229;-78
2021/12/18 09:21:41;;;;;;;15.88;14.27;;;7.20;97.20;;;;;;1715718;28;20210;-78
2021/12/18 09:22:33;;;;;;;15.50;13.90;;;7.20;97.20;;;;;;1715358;28;20235;-77
2021/12/18 09:23:24;;;;;;;16.15;14.45;;;7.10;97.20;;;;;;1715942;28;20206;-77
2021/12/18 09:24:15;;;;;;;16.67;14.98;;;7.10;97.20;;;;;;1715712;28;20206;-78
2021/12/18 09:25:08;;;;;;;17.77;15.63;;;7.10;97.20;;;;;;1715151;28;20193;-78
2021/12/18 09:26:01;;;;;;;15.43;13.38;;;7.10;97.20;;;;;;1715261;28;20453;-77
2021/12/18 09:26:52;;;;;;;16.08;14.45;;;7.10;97.20;;;;;;1715725;28;20206;-78
2021/12/18 09:27:43;;;;;;;16.17;14.48;;;7.10;97.20;;;;;;1714754;28;20217;-77
2021/12/18 09:28:35;;;;;;;16.20;14.50;;;7.20;97.20;;;;;;1715265;28;20273;-79
2021/12/18 09:29:26;;;;;;;15.77;14.05;;;7.20;97.20;;;;;;1714224;28;20699;-77
2021/12/18 09:30:18;;;;;;;15.17;13.57;;;7.20;97.20;;;;;;1714347;28;20478;-79
2021/12/18 09:31:08;;;;;;;15.55;13.90;;;7.20;97.20;;;;;;1714097;28;20477;-79
2021/12/18 09:32:00;;;;;;;15.93;14.23;;;7.20;97.20;;;;;;1714607;28;20238;-78
2021/12/18 09:32:51;;;;;;;16.75;13.88;;;7.10;97.20;;;;;;1714696;28;20209;-79
2021/12/18 09:33:43;;;;;;;14.67;13.07;;;7.10;97.20;;;;;;1714609;28;20288;-79
2021/12/18 09:34:34;;;;;;;15.63;14.00;;;7.10;97.20;;;;;;1714720;28;20213;-78
2021/12/18 09:35:26;;;;;;;14.88;13.27;;;7.10;97.20;;;;;;1714692;28;20669;-79
2021/12/18 09:36:16;;;;;;;16.63;15.00;;;7.10;97.20;;;;;;1714571;28;20237;-79
2021/12/18 09:37:10;;;;;;;16.07;14.37;;;7.10;97.20;;;;;;1714194;28;20221;-80
2021/12/18 09:38:01;;;;;;;15.38;13.77;;;7.10;97.20;;;;;;1714540;28;20480;-79
2021/12/18 09:38:53;;;;;;;16.10;14.47;;;7.10;97.20;;;;;;1714588;28;20205;-79
2021/12/18 09:39:43;;;;;;;17.60;15.50;;;7.20;97.20;;;;;;1714729;28;20488;-80
2021/12/18 09:40:36;;;;;;;16.97;15.17;;;7.20;97.20;;;;;;1714666;28;20213;-79
2021/12/18 09:41:27;;;;;;;15.70;13.85;;;7.20;97.20;;;;;;1714770;28;20580;-79
2021/12/18 09:42:19;;;;;;;15.30;13.60;;;7.20;97.20;;;;;;1714742;28;20711;-79
2021/12/18 09:43:10;;;;;;;16.23;14.57;;;7.10;97.20;;;;;;1714410;28;20213;-79
2021/12/18 09:44:01;;;;;;;17.57;15.77;;;7.10;97.20;;;;;;1714634;28;20285;-79
2021/12/18 09:44:52;;;;;;;18.42;15.75;;;7.20;97.20;;;;;;1714625;28;20206;-79
2021/12/18 09:45:46;;;;;;;16.92;14.85;;;7.20;97.20;;;;;;1714596;28;20643;-80
2021/12/18 09:46:37;;;;;;;16.98;15.13;;;7.20;97.20;;;;;;1714830;28;20209;-79
2021/12/18 09:47:28;;;;;;;17.47;14.00;;;7.30;97.20;;;;;;1714751;28;20297;-79
2021/12/18 09:48:22;;;;;;;15.63;14.10;;;7.30;97.20;;;;;;1714557;28;20445;-79
2021/12/18 09:49:14;;;;;;;16.55;14.85;;;7.30;97.20;;;;;;1713847;28;20205;-79
2021/12/18 09:50:06;;;;;;;16.23;14.52;;;7.30;97.20;;;;;;1714582;28;20746;-79
2021/12/18 09:50:59;;;;;;;16.63;14.90;;;7.30;97.20;;;;;;1714543;28;20265;-79
2021/12/18 09:51:50;;;;;;;16.10;14.50;;;7.40;97.20;;;;;;1714752;28;20316;-79
2021/12/18 09:52:43;;;;;;;18.87;16.60;;;7.40;97.20;;;;;;1714781;28;20209;-79
2021/12/18 09:53:34;;;;;;;16.70;15.00;;;7.40;97.20;;;;;;1714792;28;20479;-79
2021/12/18 09:54:26;;;;;;;17.88;16.05;;;7.40;97.20;;;;;;1714593;28;20221;-79
2021/12/18 09:55:18;;;;;;;18.90;17.10;;;7.40;97.20;;;;;;1714500;28;20232;-79
2021/12/18 09:56:10;;;;;;;18.40;16.55;;;7.40;97.20;;;;;;1714646;28;20632;-79
2021/12/18 09:57:01;;;;;;;17.75;16.05;;;7.40;97.20;;;;;;1714703;28;20211;-79
2021/12/18 09:57:53;;;;;;;17.73;15.90;;;7.30;97.20;;;;;;1714526;28;20260;-79
2021/12/18 09:58:44;;;;;;;17.85;16.08;;;7.30;97.20;;;;;;1714283;28;20253;-79
2021/12/18 09:59:37;;;;;;;18.07;16.30;;;7.30;97.20;;;;;;1714436;28;20204;-79
2021/12/18 10:00:28;;;;;;;18.17;16.38;;;7.30;97.20;;;;;;1714295;28;20480;-79
2021/12/18 10:01:20;;;;;;;18.50;16.70;;;7.30;97.20;;;;;;1714232;28;20198;-79
2021/12/18 10:02:11;;;;;;;18.42;16.63;;;7.30;97.20;;;;;;1714799;28;20202;-79
2021/12/18 10:03:03;;;;;;;20.10;18.10;;;7.30;97.20;;;;;;1714230;28;20293;-79
2021/12/18 10:03:57;;;;;;;19.05;17.05;;;7.30;97.20;;;;;;1714727;28;20202;-79
2021/12/18 10:04:49;;;;;;;19.30;17.38;;;7.30;97.20;;;;;;1714554;28;20237;-79
2021/12/18 10:05:39;;;;;;;18.27;16.30;;;7.30;97.20;;;;;;1714600;28;20691;-79
2021/12/18 10:06:36;;;;;;;18.93;16.97;;;7.30;97.20;;;;;;1714072;28;20662;-79
2021/12/18 10:07:28;;;;;;;17.80;16.10;;;7.30;97.20;;;;;;1715101;28;20214;-80
2021/12/18 10:08:21;;;;;;;17.85;16.05;;;7.30;97.20;;;;;;1715719;28;20335;-80
2021/12/18 10:09:31;;;;;;;17.75;15.98;;;7.30;97.20;;;;;;1714178;28;20225;-80
2021/12/18 10:10:21;;;;;;;17.73;16.00;;;7.30;97.20;;;;;;1712198;28;20198;-82
2021/12/18 10:11:17;;;;;;;17.70;15.90;;;7.30;97.20;;;;;;1710079;28;20210;-81
2021/12/18 10:12:15;;;;;;;17.60;15.90;;;7.30;97.20;;;;;;1709419;28;20956;-81
2021/12/18 10:13:10;;;;;;;18.13;16.25;;;7.30;97.20;;;;;;1715499;28;20214;-79
2021/12/18 10:14:02;;;;;;;17.92;16.13;;;7.30;97.20;;;;;;1715159;28;20203;-80
2021/12/18 10:14:56;;;;;;;18.52;16.33;;;7.30;97.20;;;;;;1715333;28;20205;-80
2021/12/18 10:16:06;;;;;;;18.35;16.55;;;7.30;97.20;;;;;;1715647;28;20255;-80
2021/12/18 10:16:58;;;;;;;19.52;17.52;;;7.30;97.20;;;;;;1708040;28;20207;-79
2021/12/18 10:18:03;;;;;;;17.45;15.75;;;7.30;97.20;;;;;;1708008;28;20249;-79
2021/12/18 10:18:56;;;;;;;17.60;15.90;;;7.30;97.20;;;;;;1708216;28;20242;-81
2021/12/18 10:19:49;;;;;;;17.65;15.85;;;7.30;97.20;;;;;;1712800;28;20202;-81
2021/12/18 10:20:41;;;;;;;16.27;14.77;;;7.30;97.20;;;;;;1716920;28;20222;-82
2021/12/18 10:21:31;;;;;;;16.65;14.88;;;7.30;97.20;;;;;;1715880;28;20194;-82
2021/12/18 10:22:23;;;;;;;17.07;15.37;;;7.20;97.20;;;;;;1715582;28;20202;-82
2021/12/18 10:23:14;;;;;;;15.75;14.15;;;7.20;97.20;;;;;;1716237;28;20607;-82
2021/12/18 10:24:17;;;;;;;15.10;13.60;;;7.20;97.20;;;;;;1715102;28;20308;-82
2021/12/18 10:25:09;;;;;;;16.20;14.50;;;7.20;97.20;;;;;;1713303;28;20217;-82
2021/12/18 10:26:01;;;;;;;15.77;14.18;;;7.20;97.20;;;;;;1708412;28;20295;-81